sensor_id;sensor_type;location;lat;lon;timestamp;P1;durP1;ratioP1;P2;durP2;ratioP2
71303;SDS011;59091;47.446;19.148;2023-11-21T00:00:51;32.85;;;19.27;;
71303;SDS011;59091;47.446;19.148;2023-11-21T00:03:16;37.63;;;20.83;;
71303;SDS011;59091;47.446;19.148;2023-11-21T00:05:42;33.50;;;20.20;;
71303;SDS011;59091;47.446;19.148;2023-11-21T00:08:08;31.45;;;19.75;;
71303;SDS011;59091;47.446;19.148;2023-11-21T00:10:34;38.55;;;21.88;;
71303;SDS011;59091;47.446;19.148;2023-11-21T00:12:59;33.30;;;21.55;;
71303;SDS011;59091;47.446;19.148;2023-11-21T00:15:27;31.92;;;20.50;;
71303;SDS011;59091;47.446;19.148;2023-11-21T00:17:53;31.60;;;20.83;;
71303;SDS011;59091;47.446;19.148;2023-11-21T00:20:18;33.97;;;20.67;;
71303;SDS011;59091;47.446;19.148;2023-11-21T00:22:44;32.17;;;19.63;;
71303;SDS011;59091;47.446;19.148;2023-11-21T00:25:09;30.60;;;20.33;;
71303;SDS011;59091;47.446;19.148;2023-11-21T00:27:35;35.13;;;20.85;;
71303;SDS011;59091;47.446;19.148;2023-11-21T00:30:01;29.63;;;19.38;;
71303;SDS011;59091;47.446;19.148;2023-11-21T00:32:29;32.35;;;19.98;;
71303;SDS011;59091;47.446;19.148;2023-11-21T00:34:55;34.28;;;20.15;;
71303;SDS011;59091;47.446;19.148;2023-11-21T00:37:20;34.50;;;20.10;;
71303;SDS011;59091;47.446;19.148;2023-11-21T00:39:45;30.65;;;19.50;;
71303;SDS011;59091;47.446;19.148;2023-11-21T00:42:11;29.52;;;19.73;;
71303;SDS011;59091;47.446;19.148;2023-11-21T00:44:39;30.42;;;19.35;;
71303;SDS011;59091;47.446;19.148;2023-11-21T00:47:05;31.58;;;19.48;;
71303;SDS011;59091;47.446;19.148;2023-11-21T00:49:30;34.80;;;19.95;;
71303;SDS011;59091;47.446;19.148;2023-11-21T00:51:57;34.33;;;21.80;;
71303;SDS011;59091;47.446;19.148;2023-11-21T00:54:23;33.15;;;21.25;;
71303;SDS011;59091;47.446;19.148;2023-11-21T00:56:48;34.72;;;21.05;;
71303;SDS011;59091;47.446;19.148;2023-11-21T00:59:14;35.13;;;22.08;;
71303;SDS011;59091;47.446;19.148;2023-11-21T01:01:39;37.90;;;22.42;;
71303;SDS011;59091;47.446;19.148;2023-11-21T01:04:05;40.28;;;22.20;;
71303;SDS011;59091;47.446;19.148;2023-11-21T01:06:31;39.55;;;22.33;;
71303;SDS011;59091;47.446;19.148;2023-11-21T01:08:57;36.92;;;21.67;;
71303;SDS011;59091;47.446;19.148;2023-11-21T01:11:23;34.47;;;21.88;;
71303;SDS011;59091;47.446;19.148;2023-11-21T01:13:48;34.67;;;20.45;;
71303;SDS011;59091;47.446;19.148;2023-11-21T01:16:14;35.53;;;21.85;;
71303;SDS011;59091;47.446;19.148;2023-11-21T01:18:39;35.03;;;21.83;;
71303;SDS011;59091;47.446;19.148;2023-11-21T01:21:06;34.97;;;21.17;;
71303;SDS011;59091;47.446;19.148;2023-11-21T01:23:32;32.10;;;21.70;;
71303;SDS011;59091;47.446;19.148;2023-11-21T01:25:58;34.05;;;21.63;;
71303;SDS011;59091;47.446;19.148;2023-11-21T01:28:23;36.63;;;21.52;;
71303;SDS011;59091;47.446;19.148;2023-11-21T01:30:49;35.63;;;20.85;;
71303;SDS011;59091;47.446;19.148;2023-11-21T01:33:14;36.10;;;21.27;;
71303;SDS011;59091;47.446;19.148;2023-11-21T01:35:43;33.47;;;20.83;;
71303;SDS011;59091;47.446;19.148;2023-11-21T01:38:09;33.38;;;20.33;;
71303;SDS011;59091;47.446;19.148;2023-11-21T01:40:35;34.10;;;21.73;;
71303;SDS011;59091;47.446;19.148;2023-11-21T01:43:00;37.22;;;21.98;;
71303;SDS011;59091;47.446;19.148;2023-11-21T01:45:28;35.00;;;21.08;;
71303;SDS011;59091;47.446;19.148;2023-11-21T01:47:56;37.85;;;22.90;;
71303;SDS011;59091;47.446;19.148;2023-11-21T01:50:21;32.85;;;21.25;;
71303;SDS011;59091;47.446;19.148;2023-11-21T01:52:47;38.10;;;22.20;;
71303;SDS011;59091;47.446;19.148;2023-11-21T01:55:14;35.22;;;22.27;;
71303;SDS011;59091;47.446;19.148;2023-11-21T01:57:43;33.83;;;21.40;;
71303;SDS011;59091;47.446;19.148;2023-11-21T02:00:09;39.20;;;21.42;;
71303;SDS011;59091;47.446;19.148;2023-11-21T02:02:42;37.40;;;21.48;;
71303;SDS011;59091;47.446;19.148;2023-11-21T02:05:11;33.15;;;20.80;;
71303;SDS011;59091;47.446;19.148;2023-11-21T02:07:39;36.97;;;21.40;;
71303;SDS011;59091;47.446;19.148;2023-11-21T02:10:05;36.20;;;19.83;;
71303;SDS011;59091;47.446;19.148;2023-11-21T02:12:32;36.97;;;21.13;;
71303;SDS011;59091;47.446;19.148;2023-11-21T02:14:57;37.25;;;21.10;;
71303;SDS011;59091;47.446;19.148;2023-11-21T02:17:23;38.22;;;20.95;;
71303;SDS011;59091;47.446;19.148;2023-11-21T02:19:48;34.05;;;20.77;;
71303;SDS011;59091;47.446;19.148;2023-11-21T02:22:16;36.10;;;21.38;;
71303;SDS011;59091;47.446;19.148;2023-11-21T02:24:45;37.10;;;20.33;;
71303;SDS011;59091;47.446;19.148;2023-11-21T02:27:12;35.38;;;20.73;;
71303;SDS011;59091;47.446;19.148;2023-11-21T02:32:11;34.70;;;19.08;;
71303;SDS011;59091;47.446;19.148;2023-11-21T02:34:36;29.33;;;18.98;;
71303;SDS011;59091;47.446;19.148;2023-11-21T02:37:03;37.00;;;19.80;;
71303;SDS011;59091;47.446;19.148;2023-11-21T02:39:28;32.47;;;20.80;;
71303;SDS011;59091;47.446;19.148;2023-11-21T02:41:53;30.05;;;19.13;;
71303;SDS011;59091;47.446;19.148;2023-11-21T02:44:19;33.55;;;20.77;;
71303;SDS011;59091;47.446;19.148;2023-11-21T02:46:44;34.17;;;20.58;;
71303;SDS011;59091;47.446;19.148;2023-11-21T02:49:10;32.22;;;20.15;;
71303;SDS011;59091;47.446;19.148;2023-11-21T02:51:36;34.53;;;20.15;;
71303;SDS011;59091;47.446;19.148;2023-11-21T02:54:05;33.25;;;20.08;;
71303;SDS011;59091;47.446;19.148;2023-11-21T02:56:33;38.22;;;20.63;;
71303;SDS011;59091;47.446;19.148;2023-11-21T02:58:59;32.47;;;19.73;;
71303;SDS011;59091;47.446;19.148;2023-11-21T03:01:25;35.15;;;20.75;;
71303;SDS011;59091;47.446;19.148;2023-11-21T03:03:52;37.35;;;21.65;;
71303;SDS011;59091;47.446;19.148;2023-11-21T03:06:18;34.30;;;19.73;;
71303;SDS011;59091;47.446;19.148;2023-11-21T03:08:45;37.38;;;20.27;;
71303;SDS011;59091;47.446;19.148;2023-11-21T03:11:10;34.17;;;21.02;;
71303;SDS011;59091;47.446;19.148;2023-11-21T03:13:36;40.45;;;21.15;;
71303;SDS011;59091;47.446;19.148;2023-11-21T03:16:01;33.42;;;19.60;;
71303;SDS011;59091;47.446;19.148;2023-11-21T03:18:27;36.08;;;20.55;;
71303;SDS011;59091;47.446;19.148;2023-11-21T03:20:54;31.70;;;20.50;;
71303;SDS011;59091;47.446;19.148;2023-11-21T03:23:19;36.67;;;20.38;;
71303;SDS011;59091;47.446;19.148;2023-11-21T03:25:45;32.35;;;20.20;;
71303;SDS011;59091;47.446;19.148;2023-11-21T03:28:10;33.20;;;19.85;;
71303;SDS011;59091;47.446;19.148;2023-11-21T03:30:36;30.65;;;19.35;;
71303;SDS011;59091;47.446;19.148;2023-11-21T03:33:01;31.35;;;19.58;;
71303;SDS011;59091;47.446;19.148;2023-11-21T03:35:27;36.85;;;19.95;;
71303;SDS011;59091;47.446;19.148;2023-11-21T03:37:53;32.47;;;19.02;;
71303;SDS011;59091;47.446;19.148;2023-11-21T03:40:18;31.83;;;19.73;;
71303;SDS011;59091;47.446;19.148;2023-11-21T03:42:43;28.35;;;17.75;;
71303;SDS011;59091;47.446;19.148;2023-11-21T03:45:09;30.10;;;18.88;;
71303;SDS011;59091;47.446;19.148;2023-11-21T03:47:34;32.00;;;18.52;;
71303;SDS011;59091;47.446;19.148;2023-11-21T03:50:00;30.08;;;18.90;;
71303;SDS011;59091;47.446;19.148;2023-11-21T03:52:26;36.05;;;18.50;;
71303;SDS011;59091;47.446;19.148;2023-11-21T03:54:53;34.03;;;19.05;;
71303;SDS011;59091;47.446;19.148;2023-11-21T03:57:20;31.75;;;19.83;;
71303;SDS011;59091;47.446;19.148;2023-11-21T03:59:46;30.45;;;18.48;;
71303;SDS011;59091;47.446;19.148;2023-11-21T04:02:11;32.70;;;19.05;;
71303;SDS011;59091;47.446;19.148;2023-11-21T04:04:37;28.48;;;18.25;;
71303;SDS011;59091;47.446;19.148;2023-11-21T04:07:02;33.58;;;18.88;;
71303;SDS011;59091;47.446;19.148;2023-11-21T04:09:28;29.88;;;18.35;;
71303;SDS011;59091;47.446;19.148;2023-11-21T04:11:53;27.15;;;18.10;;
71303;SDS011;59091;47.446;19.148;2023-11-21T04:14:19;30.98;;;17.95;;
71303;SDS011;59091;47.446;19.148;2023-11-21T04:16:45;32.30;;;18.33;;
71303;SDS011;59091;47.446;19.148;2023-11-21T04:19:10;28.50;;;17.60;;
71303;SDS011;59091;47.446;19.148;2023-11-21T04:21:38;32.53;;;17.80;;
71303;SDS011;59091;47.446;19.148;2023-11-21T04:24:04;33.33;;;19.10;;
71303;SDS011;59091;47.446;19.148;2023-11-21T04:26:30;29.15;;;18.90;;
71303;SDS011;59091;47.446;19.148;2023-11-21T04:28:55;32.85;;;19.45;;
71303;SDS011;59091;47.446;19.148;2023-11-21T04:31:21;29.33;;;19.27;;
71303;SDS011;59091;47.446;19.148;2023-11-21T04:33:46;29.50;;;18.85;;
71303;SDS011;59091;47.446;19.148;2023-11-21T04:36:11;29.13;;;18.10;;
71303;SDS011;59091;47.446;19.148;2023-11-21T04:38:37;28.45;;;18.48;;
71303;SDS011;59091;47.446;19.148;2023-11-21T04:41:02;30.92;;;18.38;;
71303;SDS011;59091;47.446;19.148;2023-11-21T04:43:28;30.77;;;17.70;;
71303;SDS011;59091;47.446;19.148;2023-11-21T04:45:54;32.40;;;18.80;;
71303;SDS011;59091;47.446;19.148;2023-11-21T04:48:20;38.33;;;22.35;;
71303;SDS011;59091;47.446;19.148;2023-11-21T04:50:45;33.40;;;21.42;;
71303;SDS011;59091;47.446;19.148;2023-11-21T04:53:11;34.35;;;20.92;;
71303;SDS011;59091;47.446;19.148;2023-11-21T04:55:39;32.90;;;19.80;;
71303;SDS011;59091;47.446;19.148;2023-11-21T04:58:05;33.85;;;19.20;;
71303;SDS011;59091;47.446;19.148;2023-11-21T05:00:30;30.88;;;20.45;;
71303;SDS011;59091;47.446;19.148;2023-11-21T05:02:55;34.35;;;20.30;;
71303;SDS011;59091;47.446;19.148;2023-11-21T05:05:21;38.80;;;20.40;;
71303;SDS011;59091;47.446;19.148;2023-11-21T05:07:47;32.83;;;20.58;;
71303;SDS011;59091;47.446;19.148;2023-11-21T05:10:14;32.53;;;19.30;;
71303;SDS011;59091;47.446;19.148;2023-11-21T05:12:40;34.10;;;20.20;;
71303;SDS011;59091;47.446;19.148;2023-11-21T05:15:08;34.13;;;19.77;;
71303;SDS011;59091;47.446;19.148;2023-11-21T05:17:37;29.42;;;19.60;;
71303;SDS011;59091;47.446;19.148;2023-11-21T05:20:07;35.72;;;20.73;;
71303;SDS011;59091;47.446;19.148;2023-11-21T05:22:34;36.72;;;19.95;;
71303;SDS011;59091;47.446;19.148;2023-11-21T05:25:01;29.23;;;19.73;;
71303;SDS011;59091;47.446;19.148;2023-11-21T05:27:28;25.50;;;15.73;;
71303;SDS011;59091;47.446;19.148;2023-11-21T05:29:53;60.33;;;28.58;;
71303;SDS011;59091;47.446;19.148;2023-11-21T05:32:18;49.10;;;27.27;;
71303;SDS011;59091;47.446;19.148;2023-11-21T05:34:44;41.13;;;24.48;;
71303;SDS011;59091;47.446;19.148;2023-11-21T05:37:09;41.45;;;24.63;;
71303;SDS011;59091;47.446;19.148;2023-11-21T05:39:35;39.08;;;22.13;;
71303;SDS011;59091;47.446;19.148;2023-11-21T05:42:01;40.08;;;23.75;;
71303;SDS011;59091;47.446;19.148;2023-11-21T05:44:26;50.42;;;24.58;;
71303;SDS011;59091;47.446;19.148;2023-11-21T05:46:52;44.53;;;25.60;;
71303;SDS011;59091;47.446;19.148;2023-11-21T05:49:18;38.67;;;23.92;;
71303;SDS011;59091;47.446;19.148;2023-11-21T05:51:46;52.03;;;27.25;;
71303;SDS011;59091;47.446;19.148;2023-11-21T05:54:12;41.85;;;23.77;;
71303;SDS011;59091;47.446;19.148;2023-11-21T05:56:38;41.72;;;23.92;;
71303;SDS011;59091;47.446;19.148;2023-11-21T05:59:03;39.05;;;22.75;;
71303;SDS011;59091;47.446;19.148;2023-11-21T06:01:28;45.08;;;21.40;;
71303;SDS011;59091;47.446;19.148;2023-11-21T06:03:54;36.13;;;20.73;;
71303;SDS011;59091;47.446;19.148;2023-11-21T06:06:22;34.35;;;20.52;;
71303;SDS011;59091;47.446;19.148;2023-11-21T06:08:49;39.58;;;23.25;;
71303;SDS011;59091;47.446;19.148;2023-11-21T06:11:15;38.88;;;21.88;;
71303;SDS011;59091;47.446;19.148;2023-11-21T06:13:41;36.20;;;20.80;;
71303;SDS011;59091;47.446;19.148;2023-11-21T06:16:07;35.08;;;20.38;;
71303;SDS011;59091;47.446;19.148;2023-11-21T06:18:32;31.52;;;19.67;;
71303;SDS011;59091;47.446;19.148;2023-11-21T06:20:58;31.20;;;21.48;;
71303;SDS011;59091;47.446;19.148;2023-11-21T06:23:25;34.65;;;20.48;;
71303;SDS011;59091;47.446;19.148;2023-11-21T06:25:51;34.55;;;20.38;;
71303;SDS011;59091;47.446;19.148;2023-11-21T06:28:16;34.45;;;19.95;;
71303;SDS011;59091;47.446;19.148;2023-11-21T06:30:42;34.17;;;19.70;;
71303;SDS011;59091;47.446;19.148;2023-11-21T06:33:09;32.75;;;20.63;;
71303;SDS011;59091;47.446;19.148;2023-11-21T06:35:35;36.58;;;20.15;;
71303;SDS011;59091;47.446;19.148;2023-11-21T06:38:00;36.08;;;18.92;;
71303;SDS011;59091;47.446;19.148;2023-11-21T06:40:26;33.88;;;19.10;;
71303;SDS011;59091;47.446;19.148;2023-11-21T06:42:51;28.95;;;18.63;;
71303;SDS011;59091;47.446;19.148;2023-11-21T06:45:17;32.53;;;19.35;;
71303;SDS011;59091;47.446;19.148;2023-11-21T06:47:42;32.67;;;19.38;;
71303;SDS011;59091;47.446;19.148;2023-11-21T06:50:08;30.25;;;18.48;;
71303;SDS011;59091;47.446;19.148;2023-11-21T06:52:34;37.92;;;19.80;;
71303;SDS011;59091;47.446;19.148;2023-11-21T06:54:59;30.77;;;18.92;;
71303;SDS011;59091;47.446;19.148;2023-11-21T06:57:25;31.95;;;19.73;;
71303;SDS011;59091;47.446;19.148;2023-11-21T06:59:50;29.77;;;19.27;;
71303;SDS011;59091;47.446;19.148;2023-11-21T07:02:16;38.22;;;18.65;;
71303;SDS011;59091;47.446;19.148;2023-11-21T07:04:46;36.35;;;20.20;;
71303;SDS011;59091;47.446;19.148;2023-11-21T07:07:12;35.30;;;19.35;;
71303;SDS011;59091;47.446;19.148;2023-11-21T07:09:38;34.05;;;19.33;;
71303;SDS011;59091;47.446;19.148;2023-11-21T07:12:03;34.30;;;18.85;;
71303;SDS011;59091;47.446;19.148;2023-11-21T07:14:32;27.92;;;18.63;;
71303;SDS011;59091;47.446;19.148;2023-11-21T07:17:00;27.92;;;17.05;;
71303;SDS011;59091;47.446;19.148;2023-11-21T07:19:26;27.60;;;15.77;;
71303;SDS011;59091;47.446;19.148;2023-11-21T07:21:51;24.70;;;15.52;;
71303;SDS011;59091;47.446;19.148;2023-11-21T07:24:17;29.15;;;15.30;;
71303;SDS011;59091;47.446;19.148;2023-11-21T07:26:42;26.40;;;14.90;;
71303;SDS011;59091;47.446;19.148;2023-11-21T07:29:08;29.05;;;15.07;;
71303;SDS011;59091;47.446;19.148;2023-11-21T07:31:33;27.40;;;13.98;;
71303;SDS011;59091;47.446;19.148;2023-11-21T07:33:59;27.73;;;13.93;;
71303;SDS011;59091;47.446;19.148;2023-11-21T07:36:26;20.55;;;13.85;;
71303;SDS011;59091;47.446;19.148;2023-11-21T07:38:51;24.02;;;13.52;;
71303;SDS011;59091;47.446;19.148;2023-11-21T07:41:17;23.42;;;13.15;;
71303;SDS011;59091;47.446;19.148;2023-11-21T07:43:43;19.15;;;12.57;;
71303;SDS011;59091;47.446;19.148;2023-11-21T07:46:10;22.08;;;12.75;;
71303;SDS011;59091;47.446;19.148;2023-11-21T07:48:37;22.50;;;13.00;;
71303;SDS011;59091;47.446;19.148;2023-11-21T07:51:03;26.55;;;13.65;;
71303;SDS011;59091;47.446;19.148;2023-11-21T07:53:29;22.55;;;12.30;;
71303;SDS011;59091;47.446;19.148;2023-11-21T07:58:31;21.20;;;10.68;;
71303;SDS011;59091;47.446;19.148;2023-11-21T08:00:58;16.15;;;8.45;;
71303;SDS011;59091;47.446;19.148;2023-11-21T08:03:24;14.13;;;8.07;;
71303;SDS011;59091;47.446;19.148;2023-11-21T08:05:51;13.88;;;7.32;;
71303;SDS011;59091;47.446;19.148;2023-11-21T08:08:17;14.18;;;8.23;;
71303;SDS011;59091;47.446;19.148;2023-11-21T08:10:43;13.00;;;8.32;;
71303;SDS011;59091;47.446;19.148;2023-11-21T08:13:19;11.25;;;7.40;;
71303;SDS011;59091;47.446;19.148;2023-11-21T08:15:44;13.32;;;6.93;;
71303;SDS011;59091;47.446;19.148;2023-11-21T08:18:11;12.10;;;6.65;;
71303;SDS011;59091;47.446;19.148;2023-11-21T08:20:37;16.23;;;6.70;;
71303;SDS011;59091;47.446;19.148;2023-11-21T08:23:04;11.40;;;6.22;;
71303;SDS011;59091;47.446;19.148;2023-11-21T08:25:31;14.68;;;6.55;;
71303;SDS011;59091;47.446;19.148;2023-11-21T08:27:57;11.63;;;6.32;;
71303;SDS011;59091;47.446;19.148;2023-11-21T08:30:22;14.43;;;6.00;;
71303;SDS011;59091;47.446;19.148;2023-11-21T08:32:49;16.05;;;6.90;;
71303;SDS011;59091;47.446;19.148;2023-11-21T08:35:17;13.02;;;7.00;;
71303;SDS011;59091;47.446;19.148;2023-11-21T08:37:42;16.77;;;9.75;;
71303;SDS011;59091;47.446;19.148;2023-11-21T08:40:08;22.80;;;13.20;;
71303;SDS011;59091;47.446;19.148;2023-11-21T08:42:41;33.92;;;14.40;;
71303;SDS011;59091;47.446;19.148;2023-11-21T08:45:07;28.42;;;15.43;;
71303;SDS011;59091;47.446;19.148;2023-11-21T08:47:34;31.95;;;17.00;;
71303;SDS011;59091;47.446;19.148;2023-11-21T08:50:01;30.65;;;15.98;;
71303;SDS011;59091;47.446;19.148;2023-11-21T08:52:27;33.47;;;16.70;;
71303;SDS011;59091;47.446;19.148;2023-11-21T08:54:53;23.58;;;16.20;;
71303;SDS011;59091;47.446;19.148;2023-11-21T08:57:23;29.67;;;16.00;;
71303;SDS011;59091;47.446;19.148;2023-11-21T08:59:49;29.27;;;16.38;;
71303;SDS011;59091;47.446;19.148;2023-11-21T09:02:20;33.60;;;16.58;;
71303;SDS011;59091;47.446;19.148;2023-11-21T09:04:51;29.95;;;16.33;;
71303;SDS011;59091;47.446;19.148;2023-11-21T09:07:17;28.05;;;15.48;;
71303;SDS011;59091;47.446;19.148;2023-11-21T09:09:45;31.75;;;16.75;;
71303;SDS011;59091;47.446;19.148;2023-11-21T09:12:14;33.70;;;15.13;;
71303;SDS011;59091;47.446;19.148;2023-11-21T09:14:40;35.55;;;15.88;;
71303;SDS011;59091;47.446;19.148;2023-11-21T09:17:07;25.45;;;15.27;;
71303;SDS011;59091;47.446;19.148;2023-11-21T09:19:38;33.33;;;16.08;;
71303;SDS011;59091;47.446;19.148;2023-11-21T09:22:04;29.63;;;15.55;;
71303;SDS011;59091;47.446;19.148;2023-11-21T09:24:30;33.35;;;16.33;;
71303;SDS011;59091;47.446;19.148;2023-11-21T09:26:58;23.65;;;15.23;;
71303;SDS011;59091;47.446;19.148;2023-11-21T09:29:25;28.83;;;14.63;;
71303;SDS011;59091;47.446;19.148;2023-11-21T09:31:51;28.60;;;14.77;;
71303;SDS011;59091;47.446;19.148;2023-11-21T09:34:16;27.95;;;14.40;;
71303;SDS011;59091;47.446;19.148;2023-11-21T09:36:45;19.35;;;11.65;;
71303;SDS011;59091;47.446;19.148;2023-11-21T09:39:11;32.70;;;12.63;;
71303;SDS011;59091;47.446;19.148;2023-11-21T09:44:23;27.17;;;13.00;;
71303;SDS011;59091;47.446;19.148;2023-11-21T09:46:57;29.50;;;12.10;;
71303;SDS011;59091;47.446;19.148;2023-11-21T09:49:24;28.00;;;13.13;;
71303;SDS011;59091;47.446;19.148;2023-11-21T09:51:52;22.70;;;12.43;;
71303;SDS011;59091;47.446;19.148;2023-11-21T09:54:21;22.73;;;12.05;;
71303;SDS011;59091;47.446;19.148;2023-11-21T09:56:47;25.25;;;12.63;;
71303;SDS011;59091;47.446;19.148;2023-11-21T09:59:15;33.33;;;13.13;;
71303;SDS011;59091;47.446;19.148;2023-11-21T10:01:41;30.10;;;15.05;;
71303;SDS011;59091;47.446;19.148;2023-11-21T10:04:07;23.98;;;13.95;;
71303;SDS011;59091;47.446;19.148;2023-11-21T10:06:39;24.27;;;13.93;;
71303;SDS011;59091;47.446;19.148;2023-11-21T10:09:07;27.00;;;13.80;;
71303;SDS011;59091;47.446;19.148;2023-11-21T10:11:37;25.80;;;13.57;;
71303;SDS011;59091;47.446;19.148;2023-11-21T10:14:06;21.08;;;12.57;;
71303;SDS011;59091;47.446;19.148;2023-11-21T10:16:38;21.88;;;13.30;;
71303;SDS011;59091;47.446;19.148;2023-11-21T10:19:04;30.67;;;14.52;;
71303;SDS011;59091;47.446;19.148;2023-11-21T10:21:33;23.80;;;13.75;;
71303;SDS011;59091;47.446;19.148;2023-11-21T10:23:58;23.17;;;14.32;;
71303;SDS011;59091;47.446;19.148;2023-11-21T10:26:24;25.10;;;15.05;;
71303;SDS011;59091;47.446;19.148;2023-11-21T10:28:55;30.70;;;15.85;;
71303;SDS011;59091;47.446;19.148;2023-11-21T10:31:22;32.10;;;14.93;;
71303;SDS011;59091;47.446;19.148;2023-11-21T10:33:49;25.98;;;15.35;;
71303;SDS011;59091;47.446;19.148;2023-11-21T10:36:24;29.55;;;15.45;;
71303;SDS011;59091;47.446;19.148;2023-11-21T10:38:51;28.13;;;14.50;;
71303;SDS011;59091;47.446;19.148;2023-11-21T10:41:18;27.52;;;15.60;;
71303;SDS011;59091;47.446;19.148;2023-11-21T10:43:44;30.23;;;16.45;;
71303;SDS011;59091;47.446;19.148;2023-11-21T10:46:09;42.15;;;19.70;;
71303;SDS011;59091;47.446;19.148;2023-11-21T10:48:35;43.50;;;21.67;;
71303;SDS011;59091;47.446;19.148;2023-11-21T10:51:01;38.92;;;18.80;;
71303;SDS011;59091;47.446;19.148;2023-11-21T10:53:32;39.97;;;18.90;;
71303;SDS011;59091;47.446;19.148;2023-11-21T10:56:02;34.95;;;18.08;;
71303;SDS011;59091;47.446;19.148;2023-11-21T10:58:32;35.33;;;16.02;;
71303;SDS011;59091;47.446;19.148;2023-11-21T11:00:58;29.38;;;16.65;;
71303;SDS011;59091;47.446;19.148;2023-11-21T11:03:25;29.02;;;16.48;;
71303;SDS011;59091;47.446;19.148;2023-11-21T11:05:51;26.98;;;15.32;;
71303;SDS011;59091;47.446;19.148;2023-11-21T11:08:20;26.60;;;15.18;;
71303;SDS011;59091;47.446;19.148;2023-11-21T11:10:51;29.13;;;14.80;;
71303;SDS011;59091;47.446;19.148;2023-11-21T11:13:17;26.67;;;14.10;;
71303;SDS011;59091;47.446;19.148;2023-11-21T11:15:44;24.33;;;14.32;;
71303;SDS011;59091;47.446;19.148;2023-11-21T11:18:12;25.63;;;14.75;;
71303;SDS011;59091;47.446;19.148;2023-11-21T11:20:40;26.70;;;14.43;;
71303;SDS011;59091;47.446;19.148;2023-11-21T11:26:06;25.27;;;15.00;;
71303;SDS011;59091;47.446;19.148;2023-11-21T11:29:13;41.70;;;16.70;;
71303;SDS011;59091;47.446;19.148;2023-11-21T11:31:51;29.80;;;16.85;;
71303;SDS011;59091;47.446;19.148;2023-11-21T11:34:30;34.10;;;17.48;;
71303;SDS011;59091;47.446;19.148;2023-11-21T11:37:03;30.05;;;17.02;;
71303;SDS011;59091;47.446;19.148;2023-11-21T11:39:40;32.35;;;15.32;;
71303;SDS011;59091;47.446;19.148;2023-11-21T11:42:16;30.88;;;15.75;;
71303;SDS011;59091;47.446;19.148;2023-11-21T11:50:11;28.35;;;14.55;;
71303;SDS011;59091;47.446;19.148;2023-11-21T11:52:50;31.38;;;14.23;;
71303;SDS011;59091;47.446;19.148;2023-11-21T11:55:18;28.88;;;14.63;;
71303;SDS011;59091;47.446;19.148;2023-11-21T11:57:47;27.27;;;14.88;;
71303;SDS011;59091;47.446;19.148;2023-11-21T12:02:58;33.28;;;17.38;;
71303;SDS011;59091;47.446;19.148;2023-11-21T12:05:31;32.97;;;18.42;;
71303;SDS011;59091;47.446;19.148;2023-11-21T12:07:59;26.92;;;17.58;;
71303;SDS011;59091;47.446;19.148;2023-11-21T12:10:30;27.20;;;16.55;;
71303;SDS011;59091;47.446;19.148;2023-11-21T12:12:57;31.33;;;16.80;;
71303;SDS011;59091;47.446;19.148;2023-11-21T12:15:24;33.05;;;17.23;;
71303;SDS011;59091;47.446;19.148;2023-11-21T12:17:51;27.77;;;15.52;;
71303;SDS011;59091;47.446;19.148;2023-11-21T12:20:23;26.27;;;15.07;;
71303;SDS011;59091;47.446;19.148;2023-11-21T12:22:53;29.83;;;14.68;;
71303;SDS011;59091;47.446;19.148;2023-11-21T12:25:26;22.85;;;13.82;;
71303;SDS011;59091;47.446;19.148;2023-11-21T12:27:59;23.48;;;13.93;;
71303;SDS011;59091;47.446;19.148;2023-11-21T12:30:26;26.70;;;13.85;;
71303;SDS011;59091;47.446;19.148;2023-11-21T12:33:00;26.85;;;13.48;;
71303;SDS011;59091;47.446;19.148;2023-11-21T12:35:27;30.60;;;13.60;;
71303;SDS011;59091;47.446;19.148;2023-11-21T12:37:56;27.85;;;13.38;;
71303;SDS011;59091;47.446;19.148;2023-11-21T12:40:22;34.08;;;11.95;;
71303;SDS011;59091;47.446;19.148;2023-11-21T12:42:49;20.58;;;11.93;;
71303;SDS011;59091;47.446;19.148;2023-11-21T12:47:45;19.70;;;11.25;;
71303;SDS011;59091;47.446;19.148;2023-11-21T12:50:12;18.85;;;10.93;;
71303;SDS011;59091;47.446;19.148;2023-11-21T12:52:46;18.25;;;10.98;;
71303;SDS011;59091;47.446;19.148;2023-11-21T12:55:18;19.75;;;11.43;;
71303;SDS011;59091;47.446;19.148;2023-11-21T12:57:47;17.02;;;9.88;;
71303;SDS011;59091;47.446;19.148;2023-11-21T13:00:33;18.38;;;10.57;;
71303;SDS011;59091;47.446;19.148;2023-11-21T13:03:08;18.65;;;10.15;;
71303;SDS011;59091;47.446;19.148;2023-11-21T13:05:35;20.02;;;9.80;;
71303;SDS011;59091;47.446;19.148;2023-11-21T13:08:07;17.60;;;9.10;;
71303;SDS011;59091;47.446;19.148;2023-11-21T13:10:35;18.05;;;9.77;;
71303;SDS011;59091;47.446;19.148;2023-11-21T13:13:02;14.90;;;9.93;;
71303;SDS011;59091;47.446;19.148;2023-11-21T13:15:39;15.13;;;8.10;;
71303;SDS011;59091;47.446;19.148;2023-11-21T13:18:08;15.37;;;8.73;;
71303;SDS011;59091;47.446;19.148;2023-11-21T13:20:36;20.08;;;10.50;;
71303;SDS011;59091;47.446;19.148;2023-11-21T13:23:06;16.73;;;10.07;;
71303;SDS011;59091;47.446;19.148;2023-11-21T13:25:33;23.27;;;10.90;;
71303;SDS011;59091;47.446;19.148;2023-11-21T13:27:59;22.25;;;10.07;;
71303;SDS011;59091;47.446;19.148;2023-11-21T13:30:25;20.40;;;10.45;;
71303;SDS011;59091;47.446;19.148;2023-11-21T13:32:55;14.13;;;9.05;;
71303;SDS011;59091;47.446;19.148;2023-11-21T13:35:27;19.42;;;9.77;;
71303;SDS011;59091;47.446;19.148;2023-11-21T13:37:57;22.27;;;10.43;;
71303;SDS011;59091;47.446;19.148;2023-11-21T13:40:32;20.58;;;11.45;;
71303;SDS011;59091;47.446;19.148;2023-11-21T13:43:04;21.75;;;11.73;;
71303;SDS011;59091;47.446;19.148;2023-11-21T13:45:30;29.48;;;11.75;;
71303;SDS011;59091;47.446;19.148;2023-11-21T13:47:56;24.88;;;11.43;;
71303;SDS011;59091;47.446;19.148;2023-11-21T13:50:24;21.83;;;12.07;;
71303;SDS011;59091;47.446;19.148;2023-11-21T13:52:57;36.83;;;13.65;;
71303;SDS011;59091;47.446;19.148;2023-11-21T13:55:28;21.63;;;13.30;;
71303;SDS011;59091;47.446;19.148;2023-11-21T13:57:53;25.90;;;13.48;;
71303;SDS011;59091;47.446;19.148;2023-11-21T14:00:19;28.90;;;13.70;;
71303;SDS011;59091;47.446;19.148;2023-11-21T14:03:20;26.02;;;13.60;;
71303;SDS011;59091;47.446;19.148;2023-11-21T14:05:50;24.92;;;14.40;;
71303;SDS011;59091;47.446;19.148;2023-11-21T14:08:17;31.40;;;14.43;;
71303;SDS011;59091;47.446;19.148;2023-11-21T14:10:49;25.67;;;14.65;;
71303;SDS011;59091;47.446;19.148;2023-11-21T14:13:22;26.20;;;13.93;;
71303;SDS011;59091;47.446;19.148;2023-11-21T14:15:49;26.77;;;14.25;;
71303;SDS011;59091;47.446;19.148;2023-11-21T14:18:17;30.63;;;15.15;;
71303;SDS011;59091;47.446;19.148;2023-11-21T14:20:51;25.50;;;14.43;;
71303;SDS011;59091;47.446;19.148;2023-11-21T14:23:16;23.95;;;13.65;;
71303;SDS011;59091;47.446;19.148;2023-11-21T14:25:43;26.45;;;14.52;;
71303;SDS011;59091;47.446;19.148;2023-11-21T14:28:08;27.98;;;14.93;;
71303;SDS011;59091;47.446;19.148;2023-11-21T14:30:36;25.40;;;15.20;;